sensor_id;sensor_type;location;lat;lon;timestamp;temperature;humidity
70676;DHT22;59069;52.242;20.900;2023-05-17T00:00:26;15.27;78.47
70676;DHT22;59069;52.242;20.900;2023-05-17T00:02:52;15.23;78.65
70676;DHT22;59069;52.242;20.900;2023-05-17T00:05:18;15.17;78.87
70676;DHT22;59069;52.242;20.900;2023-05-17T00:07:43;15.14;79.09
70676;DHT22;59069;52.242;20.900;2023-05-17T00:10:09;15.06;79.24
70676;DHT22;59069;52.242;20.900;2023-05-17T00:12:34;15.01;79.35
70676;DHT22;59069;52.242;20.900;2023-05-17T00:15:00;14.96;79.38
70676;DHT22;59069;52.242;20.900;2023-05-17T00:17:25;14.96;79.59
70676;DHT22;59069;52.242;20.900;2023-05-17T00:19:51;14.88;79.58
70676;DHT22;59069;52.242;20.900;2023-05-17T00:22:16;14.79;79.58
70676;DHT22;59069;52.242;20.900;2023-05-17T00:24:43;14.72;79.69
70676;DHT22;59069;52.242;20.900;2023-05-17T00:27:08;14.70;79.88
70676;DHT22;59069;52.242;20.900;2023-05-17T00:29:34;14.66;80.09
70676;DHT22;59069;52.242;20.900;2023-05-17T00:31:59;14.65;80.37
70676;DHT22;59069;52.242;20.900;2023-05-17T00:34:25;14.59;80.57
70676;DHT22;59069;52.242;20.900;2023-05-17T00:36:50;14.56;80.78
70676;DHT22;59069;52.242;20.900;2023-05-17T00:39:15;14.50;81.02
70676;DHT22;59069;52.242;20.900;2023-05-17T00:41:41;14.43;81.15
70676;DHT22;59069;52.242;20.900;2023-05-17T00:44:07;14.40;81.37
70676;DHT22;59069;52.242;20.900;2023-05-17T00:46:33;14.33;81.64
70676;DHT22;59069;52.242;20.900;2023-05-17T00:48:58;14.32;81.81
70676;DHT22;59069;52.242;20.900;2023-05-17T00:51:24;14.30;81.98
70676;DHT22;59069;52.242;20.900;2023-05-17T00:53:49;14.28;82.09
70676;DHT22;59069;52.242;20.900;2023-05-17T00:56:15;14.30;82.23
70676;DHT22;59069;52.242;20.900;2023-05-17T00:58:41;14.26;82.38
70676;DHT22;59069;52.242;20.900;2023-05-17T01:01:07;14.30;82.46
70676;DHT22;59069;52.242;20.900;2023-05-17T01:03:32;14.25;82.60
70676;DHT22;59069;52.242;20.900;2023-05-17T01:05:58;14.22;82.77
70676;DHT22;59069;52.242;20.900;2023-05-17T01:08:23;14.21;82.91
70676;DHT22;59069;52.242;20.900;2023-05-17T01:16:47;14.11;83.43
70676;DHT22;59069;52.242;20.900;2023-05-17T01:19:50;14.06;83.66
70676;DHT22;59069;52.242;20.900;2023-05-17T01:22:35;14.06;83.73
70676;DHT22;59069;52.242;20.900;2023-05-17T01:27:51;13.97;84.02
70676;DHT22;59069;52.242;20.900;2023-05-17T01:30:19;13.94;84.21
70676;DHT22;59069;52.242;20.900;2023-05-17T01:32:45;13.92;84.37
70676;DHT22;59069;52.242;20.900;2023-05-17T01:35:12;13.89;84.52
70676;DHT22;59069;52.242;20.900;2023-05-17T01:37:38;13.85;84.69
70676;DHT22;59069;52.242;20.900;2023-05-17T01:40:05;13.85;84.83
70676;DHT22;59069;52.242;20.900;2023-05-17T01:42:32;13.79;85.04
70676;DHT22;59069;52.242;20.900;2023-05-17T01:50:23;13.79;85.44
70676;DHT22;59069;52.242;20.900;2023-05-17T01:52:58;13.82;85.58
70676;DHT22;59069;52.242;20.900;2023-05-17T01:55:43;13.82;85.67
70676;DHT22;59069;52.242;20.900;2023-05-17T01:58:13;13.84;85.80
70676;DHT22;59069;52.242;20.900;2023-05-17T02:00:42;13.84;85.86
70676;DHT22;59069;52.242;20.900;2023-05-17T02:03:12;13.79;85.87
70676;DHT22;59069;52.242;20.900;2023-05-17T02:05:41;13.81;85.84
70676;DHT22;59069;52.242;20.900;2023-05-17T02:08:06;13.77;85.78
70676;DHT22;59069;52.242;20.900;2023-05-17T02:10:32;13.74;85.91
70676;DHT22;59069;52.242;20.900;2023-05-17T02:12:57;13.68;85.95
70676;DHT22;59069;52.242;20.900;2023-05-17T02:15:23;13.70;86.20
70676;DHT22;59069;52.242;20.900;2023-05-17T02:17:48;13.65;86.25
70676;DHT22;59069;52.242;20.900;2023-05-17T02:20:14;13.64;86.45
70676;DHT22;59069;52.242;20.900;2023-05-17T02:22:39;13.61;86.46
70676;DHT22;59069;52.242;20.900;2023-05-17T02:25:06;13.58;86.55
70676;DHT22;59069;52.242;20.900;2023-05-17T02:27:32;13.58;86.69
70676;DHT22;59069;52.242;20.900;2023-05-17T02:29:57;13.57;86.76
70676;DHT22;59069;52.242;20.900;2023-05-17T02:32:23;13.54;86.97
70676;DHT22;59069;52.242;20.900;2023-05-17T02:34:48;13.51;86.93
70676;DHT22;59069;52.242;20.900;2023-05-17T02:37:14;13.48;86.99
70676;DHT22;59069;52.242;20.900;2023-05-17T02:39:39;13.44;87.24
70676;DHT22;59069;52.242;20.900;2023-05-17T02:42:05;13.42;87.42
70676;DHT22;59069;52.242;20.900;2023-05-17T02:44:31;13.43;87.52
70676;DHT22;59069;52.242;20.900;2023-05-17T02:46:56;13.40;87.71
70676;DHT22;59069;52.242;20.900;2023-05-17T02:49:21;13.42;87.78
70676;DHT22;59069;52.242;20.900;2023-05-17T02:51:47;13.43;87.93
70676;DHT22;59069;52.242;20.900;2023-05-17T02:54:12;13.43;88.02
70676;DHT22;59069;52.242;20.900;2023-05-17T02:56:38;13.43;88.11
70676;DHT22;59069;52.242;20.900;2023-05-17T02:59:04;13.46;88.11
70676;DHT22;59069;52.242;20.900;2023-05-17T03:01:29;13.46;88.18
70676;DHT22;59069;52.242;20.900;2023-05-17T03:03:55;13.44;88.20
70676;DHT22;59069;52.242;20.900;2023-05-17T03:06:20;13.46;88.32
70676;DHT22;59069;52.242;20.900;2023-05-17T03:08:46;13.47;88.24
70676;DHT22;59069;52.242;20.900;2023-05-17T03:11:11;13.47;88.45
70676;DHT22;59069;52.242;20.900;2023-05-17T03:13:37;13.44;88.53
70676;DHT22;59069;52.242;20.900;2023-05-17T03:16:03;13.47;88.61
70676;DHT22;59069;52.242;20.900;2023-05-17T03:18:28;13.47;88.67
70676;DHT22;59069;52.242;20.900;2023-05-17T03:20:54;13.46;88.72
70676;DHT22;59069;52.242;20.900;2023-05-17T03:23:19;13.46;88.77
70676;DHT22;59069;52.242;20.900;2023-05-17T03:25:45;13.47;88.81
70676;DHT22;59069;52.242;20.900;2023-05-17T03:28:11;13.44;88.79
70676;DHT22;59069;52.242;20.900;2023-05-17T03:30:36;13.44;88.85
70676;DHT22;59069;52.242;20.900;2023-05-17T03:33:02;13.46;88.87
70676;DHT22;59069;52.242;20.900;2023-05-17T03:35:27;13.46;88.92
70676;DHT22;59069;52.242;20.900;2023-05-17T03:37:53;13.43;88.82
70676;DHT22;59069;52.242;20.900;2023-05-17T03:40:18;13.40;88.84
70676;DHT22;59069;52.242;20.900;2023-05-17T03:42:44;13.39;88.90
70676;DHT22;59069;52.242;20.900;2023-05-17T03:45:10;13.37;88.96
70676;DHT22;59069;52.242;20.900;2023-05-17T03:47:35;13.37;89.10
70676;DHT22;59069;52.242;20.900;2023-05-17T03:50:01;13.33;89.15
70676;DHT22;59069;52.242;20.900;2023-05-17T03:52:26;13.37;89.20
70676;DHT22;59069;52.242;20.900;2023-05-17T03:54:52;13.37;89.29
70676;DHT22;59069;52.242;20.900;2023-05-17T03:57:17;13.33;89.27
70676;DHT22;59069;52.242;20.900;2023-05-17T03:59:44;13.32;89.13
70676;DHT22;59069;52.242;20.900;2023-05-17T04:02:10;13.28;89.23
70676;DHT22;59069;52.242;20.900;2023-05-17T04:04:35;13.28;89.07
70676;DHT22;59069;52.242;20.900;2023-05-17T04:07:00;13.30;88.91
70676;DHT22;59069;52.242;20.900;2023-05-17T04:09:26;13.26;89.12
70676;DHT22;59069;52.242;20.900;2023-05-17T04:11:52;13.24;89.27
70676;DHT22;59069;52.242;20.900;2023-05-17T04:14:17;13.20;89.33
70676;DHT22;59069;52.242;20.900;2023-05-17T04:16:43;13.20;89.46
70676;DHT22;59069;52.242;20.900;2023-05-17T04:19:09;13.20;89.41
70676;DHT22;59069;52.242;20.900;2023-05-17T04:21:34;13.22;89.39
70676;DHT22;59069;52.242;20.900;2023-05-17T04:24:00;13.22;89.42
70676;DHT22;59069;52.242;20.900;2023-05-17T04:26:25;13.24;89.44
70676;DHT22;59069;52.242;20.900;2023-05-17T04:28:51;13.23;89.44
70676;DHT22;59069;52.242;20.900;2023-05-17T04:31:17;13.26;89.42
70676;DHT22;59069;52.242;20.900;2023-05-17T04:33:42;13.26;89.38
70676;DHT22;59069;52.242;20.900;2023-05-17T04:36:08;13.23;89.46
70676;DHT22;59069;52.242;20.900;2023-05-17T04:38:33;13.22;89.53
70676;DHT22;59069;52.242;20.900;2023-05-17T04:41:05;13.22;89.55
70676;DHT22;59069;52.242;20.900;2023-05-17T04:43:31;13.19;89.68
70676;DHT22;59069;52.242;20.900;2023-05-17T04:45:57;13.22;89.65
70676;DHT22;59069;52.242;20.900;2023-05-17T04:48:23;13.20;89.58
70676;DHT22;59069;52.242;20.900;2023-05-17T04:50:50;13.20;89.61
70676;DHT22;59069;52.242;20.900;2023-05-17T04:53:16;13.17;89.37
70676;DHT22;59069;52.242;20.900;2023-05-17T04:55:41;13.14;89.29
70676;DHT22;59069;52.242;20.900;2023-05-17T04:58:07;13.12;89.37
70676;DHT22;59069;52.242;20.900;2023-05-17T05:00:33;13.09;89.50
70676;DHT22;59069;52.242;20.900;2023-05-17T05:02:59;13.07;89.36
70676;DHT22;59069;52.242;20.900;2023-05-17T05:05:25;13.03;89.29
70676;DHT22;59069;52.242;20.900;2023-05-17T05:07:51;13.04;89.34
70676;DHT22;59069;52.242;20.900;2023-05-17T05:10:16;13.03;89.48
70676;DHT22;59069;52.242;20.900;2023-05-17T05:12:42;13.09;89.59
70676;DHT22;59069;52.242;20.900;2023-05-17T05:15:09;13.10;89.50
70676;DHT22;59069;52.242;20.900;2023-05-17T05:17:35;13.12;89.44
70676;DHT22;59069;52.242;20.900;2023-05-17T05:20:00;13.10;89.46
70676;DHT22;59069;52.242;20.900;2023-05-17T05:22:26;13.09;89.42
70676;DHT22;59069;52.242;20.900;2023-05-17T05:24:51;13.10;89.61
70676;DHT22;59069;52.242;20.900;2023-05-17T05:27:17;13.13;89.66
70676;DHT22;59069;52.242;20.900;2023-05-17T05:29:42;13.12;89.57
70676;DHT22;59069;52.242;20.900;2023-05-17T05:32:08;13.13;89.51
70676;DHT22;59069;52.242;20.900;2023-05-17T05:34:34;13.10;89.44
70676;DHT22;59069;52.242;20.900;2023-05-17T05:36:59;13.10;89.41
70676;DHT22;59069;52.242;20.900;2023-05-17T05:39:25;13.09;89.46
70676;DHT22;59069;52.242;20.900;2023-05-17T05:41:52;13.10;89.67
70676;DHT22;59069;52.242;20.900;2023-05-17T05:44:17;13.13;89.84
70676;DHT22;59069;52.242;20.900;2023-05-17T05:46:43;13.20;89.88
70676;DHT22;59069;52.242;20.900;2023-05-17T05:49:08;13.26;89.83
70676;DHT22;59069;52.242;20.900;2023-05-17T05:51:33;13.26;89.56
70676;DHT22;59069;52.242;20.900;2023-05-17T05:53:59;13.28;89.27
70676;DHT22;59069;52.242;20.900;2023-05-17T05:56:25;13.27;89.18
70676;DHT22;59069;52.242;20.900;2023-05-17T05:58:53;13.28;89.04
70676;DHT22;59069;52.242;20.900;2023-05-17T06:01:19;13.27;88.58
70676;DHT22;59069;52.242;20.900;2023-05-17T06:03:44;13.23;88.79
70676;DHT22;59069;52.242;20.900;2023-05-17T06:06:10;13.27;88.93
70676;DHT22;59069;52.242;20.900;2023-05-17T06:08:35;13.30;88.85
70676;DHT22;59069;52.242;20.900;2023-05-17T06:11:00;13.30;88.71
70676;DHT22;59069;52.242;20.900;2023-05-17T06:13:26;13.30;88.71
70676;DHT22;59069;52.242;20.900;2023-05-17T06:15:51;13.30;88.75
70676;DHT22;59069;52.242;20.900;2023-05-17T06:18:17;13.30;88.73
70676;DHT22;59069;52.242;20.900;2023-05-17T06:20:43;13.32;88.55
70676;DHT22;59069;52.242;20.900;2023-05-17T06:23:08;13.28;88.44
70676;DHT22;59069;52.242;20.900;2023-05-17T06:25:34;13.28;88.23
70676;DHT22;59069;52.242;20.900;2023-05-17T06:27:59;13.24;88.26
70676;DHT22;59069;52.242;20.900;2023-05-17T06:30:27;13.24;88.29
70676;DHT22;59069;52.242;20.900;2023-05-17T06:32:52;13.23;88.33
70676;DHT22;59069;52.242;20.900;2023-05-17T06:35:18;13.22;88.39
70676;DHT22;59069;52.242;20.900;2023-05-17T06:37:43;13.19;88.42
70676;DHT22;59069;52.242;20.900;2023-05-17T06:40:10;13.17;88.42
70676;DHT22;59069;52.242;20.900;2023-05-17T06:42:36;13.20;88.55
70676;DHT22;59069;52.242;20.900;2023-05-17T06:45:02;13.20;88.70
70676;DHT22;59069;52.242;20.900;2023-05-17T06:47:27;13.22;88.56
70676;DHT22;59069;52.242;20.900;2023-05-17T06:49:53;13.19;88.53
70676;DHT22;59069;52.242;20.900;2023-05-17T06:52:18;13.19;88.58
70676;DHT22;59069;52.242;20.900;2023-05-17T06:54:44;13.19;88.62
70676;DHT22;59069;52.242;20.900;2023-05-17T06:57:09;13.17;88.68
70676;DHT22;59069;52.242;20.900;2023-05-17T06:59:35;13.20;88.81
70676;DHT22;59069;52.242;20.900;2023-05-17T07:02:01;13.20;88.68
70676;DHT22;59069;52.242;20.900;2023-05-17T07:04:27;13.20;88.76
70676;DHT22;59069;52.242;20.900;2023-05-17T07:06:52;13.19;88.88
70676;DHT22;59069;52.242;20.900;2023-05-17T07:09:19;13.19;88.73
70676;DHT22;59069;52.242;20.900;2023-05-17T07:11:44;13.19;88.85
70676;DHT22;59069;52.242;20.900;2023-05-17T07:14:10;13.22;88.99
70676;DHT22;59069;52.242;20.900;2023-05-17T07:16:36;13.22;89.03
70676;DHT22;59069;52.242;20.900;2023-05-17T07:19:01;13.23;89.07
70676;DHT22;59069;52.242;20.900;2023-05-17T07:21:27;13.27;89.11
70676;DHT22;59069;52.242;20.900;2023-05-17T07:23:52;13.32;89.12
70676;DHT22;59069;52.242;20.900;2023-05-17T07:26:18;13.32;89.00
70676;DHT22;59069;52.242;20.900;2023-05-17T07:28:44;13.28;89.00
70676;DHT22;59069;52.242;20.900;2023-05-17T07:31:10;13.32;89.12
70676;DHT22;59069;52.242;20.900;2023-05-17T07:33:39;13.33;89.11
70676;DHT22;59069;52.242;20.900;2023-05-17T07:36:05;13.33;89.14
70676;DHT22;59069;52.242;20.900;2023-05-17T07:38:31;13.36;89.01
70676;DHT22;59069;52.242;20.900;2023-05-17T07:40:56;13.34;88.76
70676;DHT22;59069;52.242;20.900;2023-05-17T07:43:22;13.33;88.72
70676;DHT22;59069;52.242;20.900;2023-05-17T07:45:47;13.33;88.54
70676;DHT22;59069;52.242;20.900;2023-05-17T07:48:13;13.28;88.57
70676;DHT22;59069;52.242;20.900;2023-05-17T07:50:38;13.27;88.29
70676;DHT22;59069;52.242;20.900;2023-05-17T07:53:04;13.27;88.47
70676;DHT22;59069;52.242;20.900;2023-05-17T07:55:29;13.30;88.67
70676;DHT22;59069;52.242;20.900;2023-05-17T07:57:55;13.32;88.58
70676;DHT22;59069;52.242;20.900;2023-05-17T08:00:21;13.33;88.60
70676;DHT22;59069;52.242;20.900;2023-05-17T08:02:47;13.33;88.74
70676;DHT22;59069;52.242;20.900;2023-05-17T08:05:12;13.37;88.81
70676;DHT22;59069;52.242;20.900;2023-05-17T08:07:38;13.42;88.72
70676;DHT22;59069;52.242;20.900;2023-05-17T08:10:03;13.44;88.59
70676;DHT22;59069;52.242;20.900;2023-05-17T08:12:29;13.44;88.30
70676;DHT22;59069;52.242;20.900;2023-05-17T08:14:54;13.46;87.85
70676;DHT22;59069;52.242;20.900;2023-05-17T08:17:20;13.48;88.05
70676;DHT22;59069;52.242;20.900;2023-05-17T08:19:46;13.51;87.79
70676;DHT22;59069;52.242;20.900;2023-05-17T08:22:12;13.53;87.49
70676;DHT22;59069;52.242;20.900;2023-05-17T08:24:37;13.54;87.79
70676;DHT22;59069;52.242;20.900;2023-05-17T08:27:03;13.58;87.72
70676;DHT22;59069;52.242;20.900;2023-05-17T08:29:29;13.61;87.53
70676;DHT22;59069;52.242;20.900;2023-05-17T08:31:54;13.68;87.57
70676;DHT22;59069;52.242;20.900;2023-05-17T08:34:20;13.71;87.48
70676;DHT22;59069;52.242;20.900;2023-05-17T08:36:46;13.78;87.57
70676;DHT22;59069;52.242;20.900;2023-05-17T08:39:12;13.84;87.16
70676;DHT22;59069;52.242;20.900;2023-05-17T08:41:38;13.81;86.68
70676;DHT22;59069;52.242;20.900;2023-05-17T08:44:04;13.78;86.07
70676;DHT22;59069;52.242;20.900;2023-05-17T08:46:31;13.73;86.18
70676;DHT22;59069;52.242;20.900;2023-05-17T08:48:58;13.73;86.61
70676;DHT22;59069;52.242;20.900;2023-05-17T08:51:26;13.75;86.41
70676;DHT22;59069;52.242;20.900;2023-05-17T08:53:53;13.70;85.94
70676;DHT22;59069;52.242;20.900;2023-05-17T08:56:19;13.68;85.98
70676;DHT22;59069;52.242;20.900;2023-05-17T08:58:51;13.67;86.16
70676;DHT22;59069;52.242;20.900;2023-05-17T09:01:18;13.68;86.00
70676;DHT22;59069;52.242;20.900;2023-05-17T09:03:46;13.67;85.72
70676;DHT22;59069;52.242;20.900;2023-05-17T09:06:15;13.61;85.50
70676;DHT22;59069;52.242;20.900;2023-05-17T09:08:41;13.55;85.43
70676;DHT22;59069;52.242;20.900;2023-05-17T09:11:06;13.48;85.38
70676;DHT22;59069;52.242;20.900;2023-05-17T09:13:32;13.51;85.93
70676;DHT22;59069;52.242;20.900;2023-05-17T09:15:57;13.55;86.21
70676;DHT22;59069;52.242;20.900;2023-05-17T09:18:29;13.64;86.30
70676;DHT22;59069;52.242;20.900;2023-05-17T09:21:03;13.71;86.03
70676;DHT22;59069;52.242;20.900;2023-05-17T09:23:30;13.70;85.56
70676;DHT22;59069;52.242;20.900;2023-05-17T09:26:03;13.65;85.13
70676;DHT22;59069;52.242;20.900;2023-05-17T09:28:36;13.57;84.68
70676;DHT22;59069;52.242;20.900;2023-05-17T09:31:07;13.44;84.51
70676;DHT22;59069;52.242;20.900;2023-05-17T09:33:34;13.28;84.85
70676;DHT22;59069;52.242;20.900;2023-05-17T09:36:17;13.14;85.16
70676;DHT22;59069;52.242;20.900;2023-05-17T09:38:54;13.09;85.60
70676;DHT22;59069;52.242;20.900;2023-05-17T09:41:20;13.02;85.89
70676;DHT22;59069;52.242;20.900;2023-05-17T09:43:47;12.96;86.10
70676;DHT22;59069;52.242;20.900;2023-05-17T09:46:13;12.92;86.31
70676;DHT22;59069;52.242;20.900;2023-05-17T09:48:40;12.83;86.43
70676;DHT22;59069;52.242;20.900;2023-05-17T09:51:08;12.81;86.29
70676;DHT22;59069;52.242;20.900;2023-05-17T09:53:33;12.79;86.45
70676;DHT22;59069;52.242;20.900;2023-05-17T09:56:06;12.78;86.48
70676;DHT22;59069;52.242;20.900;2023-05-17T09:58:34;12.73;86.41
70676;DHT22;59069;52.242;20.900;2023-05-17T10:01:04;12.73;86.54
70676;DHT22;59069;52.242;20.900;2023-05-17T10:03:32;12.69;86.52
70676;DHT22;59069;52.242;20.900;2023-05-17T10:06:00;12.66;86.41
70676;DHT22;59069;52.242;20.900;2023-05-17T10:08:26;12.68;86.72
70676;DHT22;59069;52.242;20.900;2023-05-17T10:11:01;12.69;86.89
70676;DHT22;59069;52.242;20.900;2023-05-17T10:13:33;12.73;86.65
70676;DHT22;59069;52.242;20.900;2023-05-17T10:16:00;12.73;86.46
70676;DHT22;59069;52.242;20.900;2023-05-17T10:18:27;12.73;86.00
70676;DHT22;59069;52.242;20.900;2023-05-17T10:20:54;12.72;85.73
70676;DHT22;59069;52.242;20.900;2023-05-17T10:23:20;12.72;85.83
70676;DHT22;59069;52.242;20.900;2023-05-17T10:25:46;12.72;85.60
70676;DHT22;59069;52.242;20.900;2023-05-17T10:28:15;12.73;85.24
70676;DHT22;59069;52.242;20.900;2023-05-17T10:30:42;12.71;85.18
70676;DHT22;59069;52.242;20.900;2023-05-17T10:33:08;12.73;85.08
70676;DHT22;59069;52.242;20.900;2023-05-17T10:35:34;12.73;85.04
70676;DHT22;59069;52.242;20.900;2023-05-17T10:38:01;12.73;85.12
70676;DHT22;59069;52.242;20.900;2023-05-17T10:40:28;12.76;85.23
70676;DHT22;59069;52.242;20.900;2023-05-17T10:42:55;12.78;85.08
70676;DHT22;59069;52.242;20.900;2023-05-17T10:45:23;12.78;84.92
70676;DHT22;59069;52.242;20.900;2023-05-17T10:47:53;12.82;84.89
70676;DHT22;59069;52.242;20.900;2023-05-17T10:50:23;12.86;84.93
70676;DHT22;59069;52.242;20.900;2023-05-17T10:52:49;12.89;84.94
70676;DHT22;59069;52.242;20.900;2023-05-17T10:55:22;12.89;84.63
70676;DHT22;59069;52.242;20.900;2023-05-17T10:58:27;12.92;84.79
70676;DHT22;59069;52.242;20.900;2023-05-17T11:00:54;12.96;84.98
70676;DHT22;59069;52.242;20.900;2023-05-17T11:03:26;13.06;85.03
70676;DHT22;59069;52.242;20.900;2023-05-17T11:08:42;13.22;84.70
70676;DHT22;59069;52.242;20.900;2023-05-17T11:11:16;13.20;84.50
70676;DHT22;59069;52.242;20.900;2023-05-17T11:16:13;13.16;83.70
70676;DHT22;59069;52.242;20.900;2023-05-17T11:18:51;13.13;83.71
70676;DHT22;59069;52.242;20.900;2023-05-17T11:21:17;13.10;83.47
70676;DHT22;59069;52.242;20.900;2023-05-17T11:23:44;13.04;83.27
70676;DHT22;59069;52.242;20.900;2023-05-17T11:26:32;13.03;83.18
70676;DHT22;59069;52.242;20.900;2023-05-17T11:29:06;12.97;83.03
70676;DHT22;59069;52.242;20.900;2023-05-17T11:31:34;12.99;83.19
70676;DHT22;59069;52.242;20.900;2023-05-17T11:34:04;12.99;83.25
70676;DHT22;59069;52.242;20.900;2023-05-17T11:36:30;12.96;83.40
70676;DHT22;59069;52.242;20.900;2023-05-17T11:39:12;12.97;83.54
70676;DHT22;59069;52.242;20.900;2023-05-17T11:41:47;13.02;83.64
70676;DHT22;59069;52.242;20.900;2023-05-17T11:44:12;13.00;83.55
70676;DHT22;59069;52.242;20.900;2023-05-17T11:46:38;12.99;83.74
70676;DHT22;59069;52.242;20.900;2023-05-17T11:49:06;13.03;83.96
70676;DHT22;59069;52.242;20.900;2023-05-17T11:51:32;13.07;84.15
70676;DHT22;59069;52.242;20.900;2023-05-17T11:53:58;13.12;84.21
70676;DHT22;59069;52.242;20.900;2023-05-17T11:56:33;13.19;84.17
70676;DHT22;59069;52.242;20.900;2023-05-17T11:58:59;13.16;84.22
70676;DHT22;59069;52.242;20.900;2023-05-17T12:01:24;13.19;83.99
70676;DHT22;59069;52.242;20.900;2023-05-17T12:03:55;13.19;84.27
70676;DHT22;59069;52.242;20.900;2023-05-17T12:06:24;13.23;84.40
70676;DHT22;59069;52.242;20.900;2023-05-17T12:08:50;13.23;84.41
70676;DHT22;59069;52.242;20.900;2023-05-17T12:11:16;13.30;84.61
70676;DHT22;59069;52.242;20.900;2023-05-17T12:13:42;13.36;84.41
70676;DHT22;59069;52.242;20.900;2023-05-17T12:16:14;13.42;84.52
70676;DHT22;59069;52.242;20.900;2023-05-17T12:18:42;13.40;84.37
70676;DHT22;59069;52.242;20.900;2023-05-17T12:21:09;13.40;84.37
70676;DHT22;59069;52.242;20.900;2023-05-17T12:23:42;13.42;84.45
70676;DHT22;59069;52.242;20.900;2023-05-17T12:28:38;13.54;84.93
70676;DHT22;59069;52.242;20.900;2023-05-17T12:31:07;13.63;85.00
70676;DHT22;59069;52.242;20.900;2023-05-17T12:33:35;13.65;84.84
70676;DHT22;59069;52.242;20.900;2023-05-17T12:36:03;13.67;84.69
70676;DHT22;59069;52.242;20.900;2023-05-17T12:38:34;13.67;84.52
70676;DHT22;59069;52.242;20.900;2023-05-17T12:41:03;13.64;84.77
70676;DHT22;59069;52.242;20.900;2023-05-17T12:43:32;13.65;84.82
70676;DHT22;59069;52.242;20.900;2023-05-17T12:46:04;13.67;84.89
70676;DHT22;59069;52.242;20.900;2023-05-17T12:48:30;13.70;84.93
70676;DHT22;59069;52.242;20.900;2023-05-17T12:50:57;13.67;84.81
70676;DHT22;59069;52.242;20.900;2023-05-17T12:53:39;13.68;84.92
70676;DHT22;59069;52.242;20.900;2023-05-17T12:56:08;13.68;84.81
70676;DHT22;59069;52.242;20.900;2023-05-17T12:58:38;13.67;84.53
70676;DHT22;59069;52.242;20.900;2023-05-17T13:01:04;13.67;84.53
70676;DHT22;59069;52.242;20.900;2023-05-17T13:03:32;13.73;84.72
70676;DHT22;59069;52.242;20.900;2023-05-17T13:06:03;13.74;84.60
70676;DHT22;59069;52.242;20.900;2023-05-17T13:08:29;13.77;84.75
70676;DHT22;59069;52.242;20.900;2023-05-17T13:11:09;13.79;84.74
70676;DHT22;59069;52.242;20.900;2023-05-17T13:13:35;13.74;84.61
70676;DHT22;59069;52.242;20.900;2023-05-17T13:16:01;13.74;84.61
70676;DHT22;59069;52.242;20.900;2023-05-17T13:18:26;13.70;84.72
70676;DHT22;59069;52.242;20.900;2023-05-17T13:20:52;13.71;85.03
70676;DHT22;59069;52.242;20.900;2023-05-17T13:23:18;13.70;85.02
70676;DHT22;59069;52.242;20.900;2023-05-17T13:25:43;13.68;85.03
70676;DHT22;59069;52.242;20.900;2023-05-17T13:28:09;13.67;85.28
70676;DHT22;59069;52.242;20.900;2023-05-17T13:30:34;13.73;85.37
70676;DHT22;59069;52.242;20.900;2023-05-17T13:33:00;13.74;85.37
70676;DHT22;59069;52.242;20.900;2023-05-17T13:35:25;13.77;85.26
70676;DHT22;59069;52.242;20.900;2023-05-17T13:37:51;13.77;85.32
70676;DHT22;59069;52.242;20.900;2023-05-17T13:40:17;13.74;85.08
70676;DHT22;59069;52.242;20.900;2023-05-17T13:42:43;13.75;85.35
70676;DHT22;59069;52.242;20.900;2023-05-17T13:45:09;13.75;85.38
70676;DHT22;59069;52.242;20.900;2023-05-17T13:47:36;13.75;85.16
70676;DHT22;59069;52.242;20.900;2023-05-17T13:50:02;13.82;85.40
70676;DHT22;59069;52.242;20.900;2023-05-17T13:52:28;13.88;85.49
70676;DHT22;59069;52.242;20.900;2023-05-17T13:54:55;13.97;85.49
70676;DHT22;59069;52.242;20.900;2023-05-17T13:57:21;14.04;85.26
70676;DHT22;59069;52.242;20.900;2023-05-17T13:59:46;14.09;85.11
70676;DHT22;59069;52.242;20.900;2023-05-17T14:02:12;14.18;84.73
70676;DHT22;59069;52.242;20.900;2023-05-17T14:04:37;14.18;83.87
70676;DHT22;59069;52.242;20.900;2023-05-17T14:07:03;14.14;83.77
70676;DHT22;59069;52.242;20.900;2023-05-17T14:09:29;14.05;83.11
70676;DHT22;59069;52.242;20.900;2023-05-17T14:11:57;14.00;82.96
70676;DHT22;59069;52.242;20.900;2023-05-17T14:14:23;14.01;83.28
70676;DHT22;59069;52.242;20.900;2023-05-17T14:16:54;14.01;83.19
70676;DHT22;59069;52.242;20.900;2023-05-17T14:19:20;13.95;83.02
70676;DHT22;59069;52.242;20.900;2023-05-17T14:21:45;13.94;83.23
70676;DHT22;59069;52.242;20.900;2023-05-17T14:24:11;13.98;83.19
70676;DHT22;59069;52.242;20.900;2023-05-17T14:26:37;13.92;82.88
70676;DHT22;59069;52.242;20.900;2023-05-17T14:29:02;13.92;82.58
70676;DHT22;59069;52.242;20.900;2023-05-17T14:31:29;13.89;82.00
70676;DHT22;59069;52.242;20.900;2023-05-17T14:33:56;13.79;81.37
70676;DHT22;59069;52.242;20.900;2023-05-17T14:36:22;13.71;81.60
70676;DHT22;59069;52.242;20.900;2023-05-17T14:38:47;13.61;81.64
70676;DHT22;59069;52.242;20.900;2023-05-17T14:41:13;13.51;81.82
70676;DHT22;59069;52.242;20.900;2023-05-17T14:43:38;13.46;81.90
70676;DHT22;59069;52.242;20.900;2023-05-17T14:46:03;13.39;81.59
70676;DHT22;59069;52.242;20.900;2023-05-17T14:48:29;13.33;81.25
70676;DHT22;59069;52.242;20.900;2023-05-17T14:50:55;13.28;81.30
70676;DHT22;59069;52.242;20.900;2023-05-17T14:53:20;13.26;81.29
70676;DHT22;59069;52.242;20.900;2023-05-17T14:55:47;13.27;81.44
70676;DHT22;59069;52.242;20.900;2023-05-17T14:58:13;13.30;81.44
70676;DHT22;59069;52.242;20.900;2023-05-17T15:00:39;13.28;81.41
70676;DHT22;59069;52.242;20.900;2023-05-17T15:03:05;13.28;81.33
70676;DHT22;59069;52.242;20.900;2023-05-17T15:05:31;13.34;81.12
70676;DHT22;59069;52.242;20.900;2023-05-17T15:07:57;13.33;80.94
70676;DHT22;59069;52.242;20.900;2023-05-17T15:10:22;13.30;80.81
70676;DHT22;59069;52.242;20.900;2023-05-17T15:12:48;13.32;80.95
70676;DHT22;59069;52.242;20.900;2023-05-17T15:15:13;13.32;81.17
70676;DHT22;59069;52.242;20.900;2023-05-17T15:17:39;13.30;81.25
70676;DHT22;59069;52.242;20.900;2023-05-17T15:20:05;13.27;81.35
70676;DHT22;59069;52.242;20.900;2023-05-17T15:22:31;13.30;81.46
70676;DHT22;59069;52.242;20.900;2023-05-17T15:24:57;13.28;81.46
70676;DHT22;59069;52.242;20.900;2023-05-17T15:27:22;13.26;81.25
70676;DHT22;59069;52.242;20.900;2023-05-17T15:29:48;13.22;81.25
70676;DHT22;59069;52.242;20.900;2023-05-17T15:32:13;13.17;81.32
70676;DHT22;59069;52.242;20.900;2023-05-17T15:34:39;13.17;81.45